createdAt,value
2023-01-11T16:35:08.354Z,100851.28
2023-01-11T16:39:25.356Z,100874.19
2023-01-11T16:43:37.366Z,100805.72
2023-01-11T16:47:45.383Z,100890.78
2023-01-11T16:51:53.453Z,100898.81
2023-01-11T16:56:28.368Z,100919.31
2023-01-11T17:00:44.581Z,100905.72
2023-01-11T17:04:57.582Z,100935.84
2023-01-11T17:09:19.452Z,100911.38
2023-01-11T17:13:58.577Z,100952.56
2023-01-11T17:18:10.388Z,100943.44
2023-01-11T17:22:29.549Z,100964.31
2023-01-11T17:26:43.440Z,100938.09
2023-01-11T17:30:56.575Z,100905.47
2023-01-11T17:35:14.161Z,100908.72
2023-01-11T17:39:31.402Z,100920.44
2023-01-11T17:43:51.605Z,100914.69
2023-01-11T17:48:01.597Z,100904.75
2023-01-11T17:52:28.542Z,100925.47
2023-01-11T17:56:39.540Z,100929.78
2023-01-11T18:01:26.424Z,100928.94
2023-01-11T18:05:48.388Z,100926.66
2023-01-11T18:09:57.186Z,100932.88
2023-01-11T18:14:08.343Z,100912.53
2023-01-11T18:18:48.568Z,100931.06
2023-01-11T18:22:58.762Z,100919.94
2023-01-11T18:27:24.431Z,100918.63
2023-01-11T18:31:32.533Z,100885.66
2023-01-11T18:35:48.604Z,100893.34
2023-01-11T18:39:57.351Z,100925.31
2023-01-11T18:44:05.690Z,100909.97
2023-01-11T18:48:12.063Z,100912.13
2023-01-11T18:52:20.539Z,100899.44
2023-01-11T18:56:22.202Z,100893.22
2023-01-11T19:00:36.407Z,100909.59
2023-01-11T19:04:44.380Z,100875.22
2023-01-11T19:09:06.411Z,100889.34
2023-01-11T19:13:14.559Z,100889.28
2023-01-11T19:17:22.407Z,100875.41
2023-01-11T19:21:30.372Z,100875.50
2023-01-11T19:25:38.357Z,100881.84
2023-01-11T19:29:40.110Z,100874.22
2023-01-11T19:33:48.382Z,100885.47
2023-01-11T19:37:57.546Z,100888.94
2023-01-11T19:42:01.837Z,100893.63
2023-01-11T19:46:11.624Z,100860.78
2023-01-11T19:50:19.380Z,100867.16
2023-01-11T19:54:28.365Z,100890.16
2023-01-11T19:58:30.276Z,100874.59
2023-01-11T20:02:45.409Z,100855.69
2023-01-11T20:06:57.608Z,100842.03
2023-01-11T20:11:07.789Z,100834.00
2023-01-11T20:15:16.395Z,100851.09
2023-01-11T20:19:31.374Z,100823.22
2023-01-11T20:23:39.355Z,100845.38
2023-01-11T20:27:47.393Z,100840.00
2023-01-11T20:31:49.459Z,100822.41
2023-01-11T20:35:57.420Z,100812.72
2023-01-11T20:40:06.371Z,100827.31
2023-01-11T20:44:14.454Z,100792.88
2023-01-11T20:48:15.835Z,100794.41
2023-01-11T20:52:23.586Z,100759.34
